Time;durP1;ratioP1;P1;durP2;ratioP2;P2;SDS_P1;SDS_P2;PMS_P1;PMS_P2;Temp;Humidity;BMP_temperature;BMP_pressure;BME280_temperature;BME280_humidity;BME280_pressure;Samples;Min_cycle;Max_cycle;Signal;HPM_P1;HPM_P2
2022/10/22 00:00:11;;;;;;;3.17;1.70;;;;;;;;;;5071256;28;20515;-68
2022/10/22 00:02:36;;;;;;;4.93;1.60;;;;;;;;;;5090546;28;20032;-68
2022/10/22 00:05:02;;;;;;;3.50;1.73;;;;;;;;;;5077167;28;20042;-68
2022/10/22 00:07:27;;;;;;;3.40;1.70;;;;;;;;;;5090405;28;20398;-68
2022/10/22 00:09:52;;;;;;;2.70;1.50;;;;;;;;;;5071272;28;20036;-68
2022/10/22 00:12:18;;;;;;;3.50;1.53;;;;;;;;;;5090050;28;20036;-68
2022/10/22 00:14:43;;;;;;;2.87;1.47;;;;;;;;;;5089466;28;20040;-68
2022/10/22 00:17:08;;;;;;;3.63;1.40;;;;;;;;;;5082034;28;20328;-68
2022/10/22 00:19:33;;;;;;;2.15;1.52;;;;;;;;;;5072002;28;20060;-68
2022/10/22 00:21:58;;;;;;;3.03;1.40;;;;;;;;;;5079829;28;20572;-68
2022/10/22 00:24:24;;;;;;;3.40;1.43;;;;;;;;;;5093156;28;20117;-68
2022/10/22 00:26:50;;;;;;;3.10;1.42;;;;;;;;;;5090366;28;20035;-68
2022/10/22 00:29:18;;;;;;;4.23;1.53;;;;;;;;;;5089399;28;20040;-68
2022/10/22 00:31:48;;;;;;;3.85;1.70;;;;;;;;;;5088233;28;20420;-68
2022/10/22 00:34:13;;;;;;;2.58;1.45;;;;;;;;;;5087182;28;20032;-69
2022/10/22 00:36:39;;;;;;;2.75;1.48;;;;;;;;;;5087339;28;20392;-68
2022/10/22 00:39:04;;;;;;;4.53;1.83;;;;;;;;;;5087215;28;20575;-68
2022/10/22 00:41:29;;;;;;;4.53;1.60;;;;;;;;;;5087558;28;20085;-68
2022/10/22 00:43:57;;;;;;;3.20;1.47;;;;;;;;;;5086230;28;20127;-68
2022/10/22 00:46:22;;;;;;;3.35;1.50;;;;;;;;;;5086644;28;20036;-68
2022/10/22 00:48:47;;;;;;;2.57;1.50;;;;;;;;;;5085991;28;20385;-68
2022/10/22 00:51:13;;;;;;;2.92;1.40;;;;;;;;;;5086530;28;20032;-68
2022/10/22 00:53:44;;;;;;;4.25;1.42;;;;;;;;;;5080129;28;20426;-68
2022/10/22 00:56:09;;;;;;;;;;;;;;;;;;5081212;28;20131;-68
2022/10/22 00:58:35;;;;;;;5.22;1.38;;;;;;;;;;5068872;28;20007;-68
2022/10/22 01:01:01;;;;;;;5.28;1.23;;;;;;;;;;5087032;28;20036;-68
2022/10/22 01:03:26;;;;;;;3.78;1.25;;;;;;;;;;5088006;28;20492;-68
2022/10/22 01:05:54;;;;;;;2.53;1.13;;;;;;;;;;5092349;28;20048;-68
2022/10/22 01:08:28;;;;;;;3.20;1.30;;;;;;;;;;5070223;28;20089;-68
2022/10/22 01:10:53;;;;;;;1.98;1.10;;;;;;;;;;5089050;28;20104;-68
2022/10/22 01:13:32;;;;;;;5.00;1.58;;;;;;;;;;5088827;28;20350;-68
2022/10/22 01:16:00;;;;;;;1.80;1.02;;;;;;;;;;5089052;28;20077;-68
2022/10/22 01:18:46;;;;;;;3.60;1.20;;;;;;;;;;5087595;28;20485;-68
2022/10/22 01:21:19;;;;;;;3.42;1.20;;;;;;;;;;5088935;28;20105;-68
2022/10/22 01:24:03;;;;;;;2.63;1.40;;;;;;;;;;5099050;28;20036;-68
2022/10/22 01:26:48;;;;;;;3.75;1.02;;;;;;;;;;5088467;28;20089;-68
2022/10/22 01:29:26;;;;;;;2.45;1.20;;;;;;;;;;5088304;28;20564;-68
2022/10/22 01:31:55;;;;;;;1.48;0.95;;;;;;;14.84;nan;100111.66;5088287;28;20480;-68
2022/10/22 01:34:21;;;;;;;2.58;0.90;;;;;;;;;;5087019;28;20041;-68
2022/10/22 01:36:47;;;;;;;3.63;1.08;;;;;;;;;;5068590;28;20072;-68
2022/10/22 01:39:13;;;;;;;1.77;1.00;;;;;;;;;;5085021;28;20063;-68
2022/10/22 01:41:39;;;;;;;3.15;1.02;;;;;;;;;;5086130;28;20036;-68
2022/10/22 01:44:04;;;;;;;2.13;1.00;;;;;;;;;;5086533;28;20470;-69
2022/10/22 01:46:29;;;;;;;2.30;1.10;;;;;;;;;;5085613;28;20062;-69
2022/10/22 01:49:04;;;;;;;4.17;1.23;;;;;;;;;;5085841;28;20043;-68
2022/10/22 01:51:55;;;;;;;2.80;1.15;;;;;;;;;;5086305;28;20054;-68
2022/10/22 01:54:20;;;;;;;;;;;;;;;;;;5042190;28;20101;-68
2022/10/22 01:56:46;;;;;;;1.98;0.90;;;;;;;;;;5085791;28;20377;-68
2022/10/22 01:59:14;;;;;;;2.10;0.97;;;;;;;;;;5083244;28;20551;-68
2022/10/22 02:01:45;;;;;;;1.75;0.90;;;;;;;;;;5083966;28;20101;-68
2022/10/22 02:04:10;;;;;;;;;;;;;;;;;;5078156;28;20417;-69
2022/10/22 02:06:37;;;;;;;2.05;0.93;;;;;;;;;;5093086;28;20534;-68
2022/10/22 02:09:03;;;;;;;4.13;1.10;;;;;;;;;;5087659;28;20047;-68
2022/10/22 02:11:28;;;;;;;1.60;0.85;;;;;;;;;;5087717;28;20028;-68
2022/10/22 02:13:55;;;;;;;3.13;0.93;;;;;;;;;;5088196;28;20064;-68
2022/10/22 02:16:23;;;;;;;2.20;1.00;;;;;;;;;;5086646;28;20036;-68
2022/10/22 02:18:50;;;;;;;3.25;0.90;;;;;;;;;;5085968;28;20221;-68
2022/10/22 02:21:16;;;;;;;2.25;0.70;;;;;;;;;;5069371;28;20038;-68
2022/10/22 02:23:41;;;;;;;2.92;0.98;;;;;;;;;;5069418;28;20497;-68
2022/10/22 02:26:13;;;;;;;2.03;0.73;;;;;;;;;;5087634;28;20032;-68
2022/10/22 02:28:43;;;;;;;3.58;1.27;;;;;;;;;;5087047;28;20081;-68
2022/10/22 02:31:13;;;;;;;1.60;0.88;;;;;;;;;;5074054;28;20082;-68
2022/10/22 02:33:42;;;;;;;2.03;0.85;;;;;;;;;;5085994;28;20051;-68
2022/10/22 02:36:08;;;;;;;1.75;0.90;;;;;;;;;;5085999;28;20044;-69
2022/10/22 02:38:33;;;;;;;3.03;1.00;;;;;;;;;;5085805;28;20430;-68
2022/10/22 02:40:59;;;;;;;1.27;0.80;;;;;;;;;;5083757;28;20032;-68
2022/10/22 02:43:24;;;;;;;2.10;0.80;;;;;;;;;;5086230;28;20123;-68
2022/10/22 02:45:49;;;;;;;2.10;1.00;;;;;;;;;;5085153;28;20035;-68
2022/10/22 02:48:15;;;;;;;2.17;0.88;;;;;;;;;;5083239;28;20039;-68
2022/10/22 02:50:40;;;;;;;1.23;0.90;;;;;;;;;;5082171;28;20032;-68
2022/10/22 02:53:05;;;;;;;2.45;0.90;;;;;;;;;;5085770;28;20588;-68
2022/10/22 02:55:30;;;;;;;1.50;0.80;;;;;;;;;;5084881;28;20036;-68
2022/10/22 02:57:55;;;;;;;1.13;0.83;;;;;;;;;;5084975;28;20059;-68
2022/10/22 03:00:20;;;;;;;0.90;0.73;;;;;;;;;;5086489;28;20067;-68
2022/10/22 03:02:46;;;;;;;2.27;1.00;;;;;;;;;;5085853;28;20093;-68
2022/10/22 03:05:11;;;;;;;2.10;0.90;;;;;;;;;;5063629;28;20097;-68
2022/10/22 03:07:36;;;;;;;1.93;0.90;;;;;;;;;;5085159;28;20321;-68
2022/10/22 03:10:01;;;;;;;1.50;0.90;;;;;;;;;;5084020;28;20666;-68
2022/10/22 03:12:27;;;;;;;1.58;0.90;;;;;;;;;;5065215;28;20048;-68
2022/10/22 03:14:52;;;;;;;1.57;1.07;;;;;;;;;;5085350;28;20036;-68
2022/10/22 03:17:17;;;;;;;1.57;0.90;;;;;;;;;;5087296;28;20100;-68
2022/10/22 03:19:42;;;;;;;1.43;0.87;;;;;;;;;;5086731;28;20669;-68
2022/10/22 03:22:12;;;;;;;1.30;0.70;;;;;;;;;;5086412;28;20043;-69
2022/10/22 03:24:40;;;;;;;5.78;1.00;;;;;;;;;;5088190;28;20524;-68
2022/10/22 03:27:05;;;;;;;1.30;0.80;;;;;;;;;;5086811;28;20036;-68
2022/10/22 03:29:30;;;;;;;2.60;0.90;;;;;;;;;;5086245;28;20413;-68
2022/10/22 03:31:55;;;;;;;1.40;0.70;;;;;;;;;;5086711;28;20318;-68
2022/10/22 03:34:21;;;;;;;1.17;0.70;;;;;;;;;;5086517;28;20060;-68
2022/10/22 03:36:46;;;;;;;1.30;0.57;;;;;;;;;;5086754;28;20048;-68
2022/10/22 03:39:13;;;;;;;1.35;0.70;;;;;;;14.27;nan;100061.06;5086895;28;20040;-68
2022/10/22 03:41:39;;;;;;;1.83;0.60;;;;;;;;;;5068758;28;20177;-68
2022/10/22 03:44:04;;;;;;;0.52;0.50;;;;;;;;;;5086430;28;20480;-69
2022/10/22 03:46:29;;;;;;;1.20;0.80;;;;;;;;;;5086865;28;20127;-68
2022/10/22 03:48:54;;;;;;;3.70;0.70;;;;;;;;;;5084307;28;20138;-68
2022/10/22 03:51:20;;;;;;;1.40;0.87;;;;;;;;;;5084403;28;20126;-68
2022/10/22 03:53:45;;;;;;;0.83;0.67;;;;;;;;;;5085613;28;20039;-68
2022/10/22 03:56:11;;;;;;;2.67;0.80;;;;;;;;;;5084952;28;20029;-68
2022/10/22 03:58:37;;;;;;;1.10;0.60;;;;;;;;;;5086117;28;20058;-68
2022/10/22 04:01:09;;;;;;;1.80;0.73;;;;;;;;;;5087015;28;20067;-68
2022/10/22 04:03:35;;;;;;;1.75;0.65;;;;;;;;;;5087933;28;20119;-68
2022/10/22 04:06:04;;;;;;;1.58;0.60;;;;;;;;;;5087535;28;20497;-68
2022/10/22 04:08:29;;;;;;;0.93;0.60;;;;;;;;;;5086530;28;20070;-68
2022/10/22 04:10:54;;;;;;;0.50;0.50;;;;;;;;;;5069312;28;20520;-68
2022/10/22 04:13:19;;;;;;;2.80;0.70;;;;;;;;;;5070560;28;20294;-68
2022/10/22 04:15:44;;;;;;;1.40;0.80;;;;;;;;;;5088500;28;20046;-68
2022/10/22 04:18:10;;;;;;;1.10;0.60;;;;;;;;;;5087154;28;20041;-68
2022/10/22 04:20:35;;;;;;;2.67;0.80;;;;;;;;;;5087172;28;20294;-68
2022/10/22 04:23:00;;;;;;;1.47;0.57;;;;;;;;;;5088040;28;20554;-68
2022/10/22 04:25:25;;;;;;;0.70;0.60;;;;;;;;;;5086470;28;20036;-68
2022/10/22 04:27:50;;;;;;;2.60;0.80;;;;;;;;;;5088782;28;20493;-68
2022/10/22 04:30:16;;;;;;;1.50;0.67;;;;;;;;;;5087080;28;20044;-68
2022/10/22 04:32:41;;;;;;;1.13;0.70;;;;;;;;;;5086745;28;20043;-68
2022/10/22 04:35:06;;;;;;;1.40;0.70;;;;;;;;;;5087272;28;20286;-68
2022/10/22 04:37:31;;;;;;;2.13;0.60;;;;;;;13.38;nan;100078.69;5087794;28;20454;-68
2022/10/22 04:39:57;;;;;;;2.75;0.70;;;;;;;;;;5069568;28;20089;-68
2022/10/22 04:42:22;;;;;;;1.97;0.63;;;;;;;;;;5086297;28;20044;-68
2022/10/22 04:44:47;;;;;;;1.57;0.80;;;;;;;;;;5088631;28;20683;-68
2022/10/22 04:47:12;;;;;;;1.93;0.83;;;;;;;;;;5087044;28;20046;-68
2022/10/22 04:49:37;;;;;;;3.13;1.00;;;;;;;;;;5080029;28;20258;-68
2022/10/22 04:52:02;;;;;;;2.90;1.03;;;;;;;;;;5087619;28;20279;-69
2022/10/22 04:54:28;;;;;;;3.57;0.70;;;;;;;;;;5091430;28;20400;-68
2022/10/22 04:56:53;;;;;;;1.20;0.70;;;;;;;;;;5078807;28;20290;-68
2022/10/22 04:59:18;;;;;;;0.50;0.50;;;;;;;;;;5086094;28;20040;-68
2022/10/22 05:01:43;;;;;;;2.17;0.90;;;;;;;;;;5086756;28;20110;-68
2022/10/22 05:04:13;;;;;;;1.30;0.60;;;;;;;;;;5085403;28;20043;-68
2022/10/22 05:06:38;;;;;;;2.10;0.85;;;;;;;;;;5087674;28;20603;-68
2022/10/22 05:09:05;;;;;;;1.35;0.80;;;;;;;;;;5088873;28;20509;-68
2022/10/22 05:11:34;;;;;;;1.40;0.70;;;;;;;;;;5089304;28;20584;-68
2022/10/22 05:14:00;;;;;;;1.73;0.73;;;;;;;;;;5086760;28;20211;-68
2022/10/22 05:16:27;;;;;;;1.42;0.80;;;;;;;;;;5090336;28;20516;-68
2022/10/22 05:18:52;;;;;;;1.30;0.70;;;;;;;;;;5088649;28;20453;-68
2022/10/22 05:21:18;;;;;;;1.23;0.70;;;;;;;;;;5088635;28;20059;-68
2022/10/22 05:23:44;;;;;;;1.23;0.70;;;;;;;;;;5097463;28;20556;-68
2022/10/22 05:26:12;;;;;;;2.75;0.85;;;;;;;13.36;nan;100063.97;5088381;28;20036;-68
2022/10/22 05:28:37;;;;;;;2.33;0.82;;;;;;;;;;5087485;28;20582;-68
2022/10/22 05:31:03;;;;;;;2.45;0.70;;;;;;;;;;5083794;28;20035;-68
2022/10/22 05:33:29;;;;;;;1.15;0.60;;;;;;;;;;5071034;28;20035;-68
2022/10/22 05:35:55;;;;;;;2.17;0.80;;;;;;;;;;5088007;28;20040;-69
2022/10/22 05:38:20;;;;;;;1.65;0.75;;;;;;;;;;5087955;28;20406;-68
2022/10/22 05:40:45;;;;;;;1.67;0.80;;;;;;;;;;5083004;28;20040;-68
2022/10/22 05:43:11;;;;;;;0.80;0.67;;;;;;;;;;5088434;28;20040;-68
2022/10/22 05:45:37;;;;;;;1.40;0.70;;;;;;;;;;5088771;28;20282;-68
2022/10/22 05:48:02;;;;;;;0.50;0.50;;;;;;;;;;5067406;28;20051;-69
2022/10/22 05:50:27;;;;;;;1.30;0.70;;;;;;;;;;5086320;28;20035;-68
2022/10/22 05:52:52;;;;;;;2.83;0.80;;;;;;;;;;5084949;28;20824;-68
2022/10/22 05:55:17;;;;;;;2.33;0.83;;;;;;;;;;5087028;28;20113;-68
2022/10/22 05:57:43;;;;;;;1.30;0.70;;;;;;;;;;5085726;28;20524;-68
2022/10/22 06:00:08;;;;;;;3.43;1.27;;;;;;;;;;5084343;28;20036;-69
2022/10/22 06:02:33;;;;;;;2.15;0.80;;;;;;;;;;5084436;28;20519;-68
2022/10/22 06:04:59;;;;;;;2.07;0.70;;;;;;;;;;5085120;28;20051;-68
2022/10/22 06:07:24;;;;;;;1.77;0.70;;;;;;;;;;5088377;28;20443;-68
2022/10/22 06:09:49;;;;;;;2.10;0.80;;;;;;;;;;5085908;28;20043;-68
2022/10/22 06:12:15;;;;;;;1.23;0.80;;;;;;;;;;5083864;28;21844;-69
2022/10/22 06:14:40;;;;;;;1.10;0.77;;;;;;;;;;5085692;28;20322;-68
2022/10/22 06:17:09;;;;;;;1.63;0.90;;;;;;;;;;5085929;28;20393;-69
2022/10/22 06:19:35;;;;;;;0.98;0.68;;;;;;;;;;5067414;28;20532;-69
2022/10/22 06:22:00;;;;;;;1.15;0.70;;;;;;;;;;5085159;28;20064;-69
2022/10/22 06:24:25;;;;;;;1.17;0.80;;;;;;;;;;5067195;28;20119;-68
2022/10/22 06:26:51;;;;;;;1.77;0.90;;;;;;;;;;5068898;28;20507;-68
2022/10/22 06:29:16;;;;;;;1.70;0.88;;;;;;;;;;5085571;28;20286;-68
2022/10/22 06:31:41;;;;;;;1.45;0.82;;;;;;;;;;5069241;28;20112;-68
2022/10/22 06:34:09;;;;;;;1.90;0.80;;;;;;;;;;5080550;28;20482;-69
2022/10/22 06:36:34;;;;;;;1.55;0.80;;;;;;;;;;5083021;28;20459;-69
2022/10/22 06:39:00;;;;;;;2.92;0.70;;;;;;;;;;5085640;28;21226;-69
2022/10/22 06:41:25;;;;;;;1.23;0.60;;;;;;;;;;5085605;28;20210;-68
2022/10/22 06:43:51;;;;;;;2.15;0.70;;;;;;;;;;5084859;28;20035;-69
2022/10/22 06:46:18;;;;;;;1.17;0.60;;;;;;;;;;5085253;28;20032;-68
2022/10/22 06:48:47;;;;;;;1.40;0.60;;;;;;;;;;5084659;28;20031;-69
2022/10/22 06:51:12;;;;;;;2.08;0.65;;;;;;;;;;5085521;28;20115;-68
2022/10/22 06:53:38;;;;;;;1.03;0.63;;;;;;;;;;5086321;28;20143;-69
2022/10/22 06:56:07;;;;;;;0.75;0.50;;;;;;;;;;5085451;28;20043;-69
2022/10/22 06:58:32;;;;;;;2.45;0.50;;;;;;;;;;5084756;28;20106;-69
2022/10/22 07:01:02;;;;;;;1.03;0.60;;;;;;;;;;5086800;28;20116;-69
2022/10/22 07:03:27;;;;;;;1.30;0.68;;;;;;;;;;5065364;28;20290;-69
2022/10/22 07:05:52;;;;;;;1.33;0.77;;;;;;;;;;5066024;28;20028;-69
2022/10/22 07:08:17;;;;;;;1.27;0.60;;;;;;;;;;5085899;28;20119;-69
2022/10/22 07:10:42;;;;;;;1.73;0.70;;;;;;;;;;5086243;28;20040;-69
2022/10/22 07:13:08;;;;;;;1.63;0.70;;;;;;;;;;5081699;28;20055;-69
2022/10/22 07:15:33;;;;;;;1.13;0.70;;;;;;;;;;5085651;28;20044;-69
2022/10/22 07:17:58;;;;;;;2.10;0.70;;;;;;;;;;5086806;28;20309;-69
2022/10/22 07:20:23;;;;;;;3.00;0.70;;;;;;;;;;5087793;28;20348;-69
2022/10/22 07:22:48;;;;;;;1.63;0.80;;;;;;;;;;5082456;28;20194;-69
2022/10/22 07:25:13;;;;;;;0.87;0.60;;;;;;;;;;5086935;28;20493;-69
2022/10/22 07:27:39;;;;;;;1.13;0.70;;;;;;;;;;5046032;28;20134;-69
2022/10/22 07:30:04;;;;;;;1.30;0.60;;;;;;;;;;5081610;28;20359;-69
2022/10/22 07:32:29;;;;;;;1.45;0.60;;;;;;;;;;5089572;28;20119;-69
2022/10/22 07:34:54;;;;;;;1.20;0.70;;;;;;;;;;5091252;28;20046;-69
2022/10/22 07:37:20;;;;;;;1.33;0.60;;;;;;;;;;5091634;28;20032;-69
2022/10/22 07:39:46;;;;;;;1.30;0.63;;;;;;;;;;5089662;28;20042;-69
2022/10/22 07:42:11;;;;;;;0.93;0.70;;;;;;;;;;5086933;28;20032;-69
2022/10/22 07:44:36;;;;;;;1.23;0.70;;;;;;;;;;5089002;28;20044;-69
2022/10/22 07:47:11;;;;;;;0.90;0.50;;;;;;;;;;5071044;28;20151;-69
2022/10/22 07:49:36;;;;;;;1.40;0.65;;;;;;;;;;5086475;28;20131;-69
2022/10/22 07:52:01;;;;;;;1.00;0.50;;;;;;;;;;5070456;28;20556;-71
2022/10/22 07:54:26;;;;;;;1.60;0.50;;;;;;;;;;5087850;28;20331;-69
2022/10/22 07:56:52;;;;;;;1.73;0.70;;;;;;;;;;5089016;28;20135;-69
2022/10/22 07:59:17;;;;;;;1.03;0.57;;;;;;;;;;5087741;28;20904;-69
2022/10/22 08:01:42;;;;;;;1.07;0.60;;;;;;;;;;5086845;28;20138;-69
2022/10/22 08:04:08;;;;;;;1.20;0.67;;;;;;;;;;5069998;28;20426;-69
2022/10/22 08:06:34;;;;;;;2.03;0.70;;;;;;;;;;5086989;28;20451;-69
2022/10/22 08:08:59;;;;;;;0.50;0.50;;;;;;;;;;5085460;28;20039;-69
2022/10/22 08:11:25;;;;;;;1.37;0.60;;;;;;;;;;5088489;28;20408;-68
2022/10/22 08:13:50;;;;;;;0.93;0.50;;;;;;;;;;5082162;28;20067;-68
2022/10/22 08:16:16;;;;;;;1.07;0.50;;;;;;;;;;5069759;28;20071;-68
2022/10/22 08:18:41;;;;;;;1.77;0.67;;;;;;;;;;5069534;28;20374;-68
2022/10/22 08:21:06;;;;;;;0.73;0.53;;;;;;;;;;5085873;28;20048;-68
2022/10/22 08:23:31;;;;;;;2.20;0.70;;;;;;;;;;5087568;28;20282;-68
2022/10/22 08:25:57;;;;;;;1.53;0.70;;;;;;;;;;5075052;28;20299;-68
2022/10/22 08:28:22;;;;;;;1.30;0.70;;;;;;;;;;5080445;28;20279;-68
2022/10/22 08:30:47;;;;;;;1.77;0.70;;;;;;;;;;5084978;28;20032;-68
2022/10/22 08:33:13;;;;;;;1.40;0.57;;;;;;;;;;5087055;28;20610;-68
2022/10/22 08:35:38;;;;;;;1.35;0.68;;;;;;;;;;5071660;28;20847;-68
2022/10/22 08:38:03;;;;;;;1.03;0.60;;;;;;;15.71;nan;100299.81;5082806;28;20639;-68
2022/10/22 08:40:33;;;;;;;2.00;0.60;;;;;;;;;;5080886;28;20036;-68
2022/10/22 08:43:01;;;;;;;2.28;0.70;;;;;;;;;;5089034;28;20669;-68
2022/10/22 08:45:35;;;;;;;1.15;0.70;;;;;;;;;;5088779;28;20563;-68
2022/10/22 08:48:06;;;;;;;1.23;0.57;;;;;;;;;;5085433;28;20558;-68
2022/10/22 08:50:35;;;;;;;1.98;1.13;;;;;;;;;;5069530;28;20054;-68
2022/10/22 08:53:14;;;;;;;1.52;0.60;;;;;;;;;;5077319;28;20044;-68
2022/10/22 08:55:39;;;;;;;1.20;0.68;;;;;;;;;;5081725;28;20041;-68
2022/10/22 08:58:27;;;;;;;1.60;0.70;;;;;;;;;;5081197;28;20525;-68
2022/10/22 09:00:52;;;;;;;0.55;0.50;;;;;;;;;;5083220;28;20088;-68
2022/10/22 09:03:20;;;;;;;1.20;0.60;;;;;;;;;;5082750;28;20052;-68
2022/10/22 09:05:55;;;;;;;1.48;0.70;;;;;;;;;;5087446;28;20040;-68
2022/10/22 09:08:20;;;;;;;0.77;0.70;;;;;;;;;;5082737;28;20132;-68
2022/10/22 09:10:48;;;;;;;1.63;0.60;;;;;;;;;;5083522;28;20167;-68
2022/10/22 09:13:16;;;;;;;1.13;0.65;;;;;;;;;;5088478;28;20572;-68
2022/10/22 09:15:42;;;;;;;0.60;0.57;;;;;;;;;;5070183;28;20055;-68
2022/10/22 09:18:36;;;;;;;1.27;0.70;;;;;;;;;;5079206;28;20409;-68
2022/10/22 09:21:06;;;;;;;1.45;0.70;;;;;;;;;;5009792;28;20285;-68
2022/10/22 09:23:54;;;;;;;2.45;0.70;;;;;;;;;;5084937;28;20051;-68
2022/10/22 09:26:19;;;;;;;1.92;0.90;;;;;;;;;;5082142;28;20417;-68
2022/10/22 09:28:48;;;;;;;1.47;0.90;;;;;;;;;;5079216;28;20036;-68
2022/10/22 09:31:14;;;;;;;2.10;0.90;;;;;;;;;;5075868;28;20291;-68
2022/10/22 09:33:40;;;;;;;1.38;0.90;;;;;;;;;;5085484;28;20047;-68
2022/10/22 09:36:06;;;;;;;0.60;0.60;;;;;;;;;;5083387;28;20078;-68
2022/10/22 09:38:39;;;;;;;2.35;0.80;;;;;;;;;;5083381;28;20036;-68
2022/10/22 09:41:04;;;;;;;1.42;0.80;;;;;;;;;;5068016;28;20084;-68
2022/10/22 09:43:30;;;;;;;1.02;0.80;;;;;;;;;;5082276;28;20032;-68
2022/10/22 09:45:56;;;;;;;1.75;1.00;;;;;;;;;;5067841;28;20047;-68
2022/10/22 09:48:31;;;;;;;1.10;0.70;;;;;;;;;;5084681;28;20040;-68
2022/10/22 09:50:59;;;;;;;1.15;0.80;;;;;;;;;;5081349;28;20067;-68
2022/10/22 09:53:25;;;;;;;2.03;1.30;;;;;;;;;;5064802;28;20028;-68
2022/10/22 09:55:52;;;;;;;1.60;1.00;;;;;;;;;;5077160;28;20036;-68
2022/10/22 09:58:17;;;;;;;1.30;0.85;;;;;;;;;;5079181;28;20551;-68
2022/10/22 10:00:44;;;;;;;1.40;0.90;;;;;;;;;;5084647;28;20036;-68
2022/10/22 10:03:15;;;;;;;1.42;0.80;;;;;;;;;;5083720;28;20535;-67
2022/10/22 10:05:40;;;;;;;1.70;0.90;;;;;;;;;;5088881;28;20052;-68
2022/10/22 10:08:12;;;;;;;2.00;0.93;;;;;;;;;;5078480;28;20524;-68
2022/10/22 10:10:45;;;;;;;1.60;0.80;;;;;;;;;;5075387;28;20092;-67
2022/10/22 10:13:21;;;;;;;1.85;0.90;;;;;;;;;;5079907;28;20393;-67
2022/10/22 10:15:52;;;;;;;1.27;0.82;;;;;;;;;;5080324;28;20043;-67
2022/10/22 10:18:17;;;;;;;;;;;;;;;;;;5083537;28;20036;-67
2022/10/22 10:20:55;;;;;;;4.78;0.93;;;;;;;20.02;nan;100398.84;5074269;28;20224;-67
2022/10/22 10:23:32;;;;;;;1.67;0.70;;;;;;;20.60;nan;100405.00;5085582;28;20147;-69
2022/10/22 10:26:23;;;;;;;1.15;0.68;;;;;;;20.57;nan;100393.66;5083007;28;20218;-68
2022/10/22 10:29:03;;;;;;;2.13;0.70;;;;;;;20.71;nan;100409.63;5083628;28;20043;-68
2022/10/22 10:31:39;;;;;;;2.72;0.80;;;;;;;21.76;nan;100404.13;5070400;28;20497;-68
2022/10/22 10:34:28;;;;;;;1.23;0.60;;;;;;;24.35;nan;100446.16;5081865;28;20036;-68
2022/10/22 10:37:12;;;;;;;2.38;0.70;;;;;;;26.67;nan;100459.56;5064641;28;20047;-68
2022/10/22 10:40:23;;;;;;;2.63;0.68;;;;;;;28.28;nan;100456.16;5081688;28;20055;-68
2022/10/22 10:42:56;;;;;;;0.68;0.50;;;;;;;29.46;nan;100572.28;5080204;28;20038;-69
2022/10/22 10:45:47;;;;;;;1.13;0.50;;;;;;;29.96;nan;100584.97;5076678;28;20037;-68
2022/10/22 10:48:50;;;;;;;2.53;0.50;;;;;;;30.55;nan;100582.44;5083716;28;20043;-69
2022/10/22 10:51:30;;;;;;;0.60;0.40;;;;;;;30.99;nan;100587.84;5080584;28;20041;-68
2022/10/22 10:54:34;;;;;;;0.93;0.50;;;;;;;31.52;nan;100576.94;5083456;28;20412;-69
2022/10/22 10:57:07;;;;;;;1.77;0.60;;;;;;;32.07;nan;100573.03;5085464;28;20105;-69
2022/10/22 10:59:44;;;;;;;3.45;0.70;;;;;;;32.51;nan;100577.31;5074157;28;20093;-69
2022/10/22 11:02:46;;;;;;;1.33;0.40;;;;;;;32.77;nan;100566.75;5085792;28;20488;-69
2022/10/22 11:05:21;;;;;;;2.03;0.60;;;;;;;31.87;nan;100560.38;5082647;28;20085;-68
2022/10/22 11:07:52;;;;;;;1.00;0.45;;;;;;;31.58;nan;100565.97;5061739;28;20032;-69
2022/10/22 11:10:28;;;;;;;1.90;0.50;;;;;;;30.57;nan;100556.50;5066586;28;20115;-68
2022/10/22 11:13:01;;;;;;;1.00;0.60;;;;;;;29.55;nan;100560.53;5079003;28;20538;-68
2022/10/22 11:15:31;;;;;;;2.45;0.63;;;;;;;27.88;nan;100565.63;5085277;28;20043;-68
2022/10/22 11:18:06;;;;;;;2.30;0.50;;;;;;;26.69;nan;100572.16;5086476;28;20040;-68
2022/10/22 11:20:47;;;;;;;1.25;0.60;;;;;;;25.83;nan;100561.16;5088063;28;20492;-68
2022/10/22 11:23:23;;;;;;;1.45;0.60;;;;;;;25.46;nan;100561.78;5091668;28;20127;-68
2022/10/22 11:25:49;;;;;;;0.95;0.50;;;;;;;25.31;nan;100559.66;5083815;28;20720;-68
2022/10/22 11:28:50;;;;;;;1.40;0.60;;;;;;;25.04;nan;100554.09;5082723;28;20391;-69
2022/10/22 11:31:16;;;;;;;2.05;0.70;;;;;;;24.70;nan;100556.81;5053399;28;20093;-68
2022/10/22 11:33:52;;;;;;;1.17;0.60;;;;;;;24.48;nan;100554.00;5088313;28;20513;-68
2022/10/22 11:36:22;;;;;;;1.10;0.50;;;;;;;24.36;nan;100561.31;5065711;28;20047;-69
2022/10/22 11:38:48;;;;;;;2.65;0.70;;;;;;;24.19;nan;100563.13;5081074;28;20039;-69
2022/10/22 11:41:23;;;;;;;1.55;0.77;;;;;;;24.15;nan;100558.22;5072264;28;20107;-68
2022/10/22 11:43:54;;;;;;;2.63;0.60;;;;;;;23.82;nan;100556.22;5088743;28;20082;-68
2022/10/22 11:46:20;;;;;;;1.90;0.60;;;;;;;23.52;nan;100554.47;5084348;28;20032;-68
2022/10/22 11:49:00;;;;;;;2.13;0.60;;;;;;;23.44;nan;100562.94;5070088;28;20035;-68
2022/10/22 11:51:34;;;;;;;1.38;0.70;;;;;;;23.23;nan;100553.56;5069998;28;20035;-68
2022/10/22 11:54:13;;;;;;;2.33;0.73;;;;;;;23.01;nan;100544.41;5087173;28;20051;-68
2022/10/22 11:56:39;;;;;;;2.08;0.90;;;;;;;23.07;nan;100543.47;5084335;28;20460;-68
2022/10/22 11:59:27;;;;;;;1.48;0.60;;;;;;;23.30;nan;100542.66;5086069;28;20111;-68
2022/10/22 12:01:54;;;;;;;2.47;0.82;;;;;;;23.39;nan;100552.03;5083864;28;20032;-68
2022/10/22 12:04:21;;;;;;;2.50;1.00;;;;;;;23.31;nan;100538.88;5085625;28;20040;-68
2022/10/22 12:06:58;;;;;;;1.33;0.70;;;;;;;23.21;nan;100538.66;5090647;28;20040;-68
2022/10/22 12:09:28;;;;;;;1.58;0.77;;;;;;;23.19;nan;100536.22;5078053;28;20028;-68
2022/10/22 12:12:01;;;;;;;2.42;0.70;;;;;;;23.08;nan;100537.03;5079428;28;20067;-68
2022/10/22 12:15:10;;;;;;;1.87;0.70;;;;;;;23.34;nan;100537.63;5085279;28;20395;-68
2022/10/22 12:17:35;;;;;;;0.85;0.60;;;;;;;23.50;nan;100543.13;5063895;28;20422;-68
2022/10/22 12:20:11;;;;;;;2.75;0.70;;;;;;;23.36;nan;100536.31;5082757;28;20491;-68
2022/10/22 12:22:38;;;;;;;3.58;0.77;;;;;;;23.36;nan;100544.41;5091978;28;20040;-68
2022/10/22 12:25:23;;;;;;;1.63;0.80;;;;;;;23.42;nan;100538.06;5086216;28;20051;-68
2022/10/22 12:27:54;;;;;;;5.28;0.80;;;;;;;23.40;nan;100532.06;5071879;28;20041;-68
2022/10/22 12:30:25;;;;;;;4.07;0.82;;;;;;;23.13;nan;100525.53;5065078;28;20112;-68
2022/10/22 12:32:55;;;;;;;3.13;0.90;;;;;;;22.82;nan;100533.69;5090441;28;20042;-68
2022/10/22 12:35:24;;;;;;;4.28;0.80;;;;;;;22.71;nan;100523.69;5090121;28;20028;-68
2022/10/22 12:38:20;;;;;;;2.13;0.70;;;;;;;22.48;nan;100524.50;5089242;28;20036;-68
2022/10/22 12:40:47;;;;;;;2.63;0.70;;;;;;;22.40;nan;100522.94;5088118;28;20054;-68
2022/10/22 12:43:15;;;;;;;2.65;0.90;;;;;;;22.27;nan;100513.19;5083555;28;20040;-68
2022/10/22 12:45:44;;;;;;;1.92;0.90;;;;;;;22.25;nan;100506.38;5085874;28;20117;-68
2022/10/22 12:48:33;;;;;;;3.92;1.45;;;;;;;22.06;nan;100513.66;5082586;28;20040;-68
2022/10/22 12:51:00;;;;;;;1.95;0.80;;;;;;;22.01;nan;100519.72;5080768;28;20626;-68
2022/10/22 12:53:47;;;;;;;7.03;1.00;;;;;;;22.02;nan;100518.69;5089459;28;20384;-68
2022/10/22 12:56:16;;;;;;;3.10;0.75;;;;;;;22.02;nan;100517.84;5086442;28;20028;-68
2022/10/22 12:58:46;;;;;;;2.50;1.00;;;;;;;21.91;nan;100527.53;5083790;28;20040;-68
2022/10/22 13:01:14;;;;;;;1.85;0.82;;;;;;;21.99;nan;100531.78;5083817;28;20230;-68
2022/10/22 13:04:03;;;;;;;1.70;0.60;;;;;;;22.09;nan;100526.66;5086242;28;20538;-68
2022/10/22 13:06:28;;;;;;;4.10;1.10;;;;;;;21.81;nan;100524.56;5090248;28;20070;-68
2022/10/22 13:09:01;;;;;;;1.95;0.90;;;;;;;21.72;nan;100532.09;5084234;28;20415;-68
2022/10/22 13:11:37;;;;;;;2.47;0.90;;;;;;;21.67;nan;100523.06;5079868;28;20024;-67
2022/10/22 13:14:17;;;;;;;2.55;1.08;;;;;;;21.61;nan;100530.16;5085339;28;20174;-68
2022/10/22 13:17:01;;;;;;;1.73;0.80;;;;;;;21.67;nan;100534.66;5068303;28;20528;-68
2022/10/22 13:19:36;;;;;;;2.90;0.90;;;;;;;21.66;nan;100526.78;5085719;28;20074;-68
2022/10/22 13:22:02;;;;;;;2.25;0.73;;;;;;;21.53;nan;100525.91;5086366;28;20072;-68
2022/10/22 13:24:28;;;;;;;2.95;0.90;;;;;;;21.50;nan;100520.13;5086245;28;20105;-68
2022/10/22 13:26:54;;;;;;;2.47;0.88;;;;;;;21.44;nan;100524.56;5082855;28;20128;-68
2022/10/22 13:29:21;;;;;;;1.60;0.80;;;;;;;21.25;nan;100521.00;5084894;28;20115;-68
2022/10/22 13:31:49;;;;;;;3.97;0.90;;;;;;;21.11;nan;100527.53;5087533;28;20032;-68
2022/10/22 13:34:20;;;;;;;3.40;0.90;;;;;;;21.09;nan;100527.75;5068834;28;20119;-68
2022/10/22 13:36:46;;;;;;;2.83;0.80;;;;;;;21.02;nan;100524.31;5084188;28;20520;-68
2022/10/22 13:39:18;;;;;;;1.23;0.75;;;;;;;21.07;nan;100523.63;5082917;28;20098;-68
2022/10/22 13:41:44;;;;;;;2.17;0.90;;;;;;;21.15;nan;100529.56;5084475;28;20036;-68
2022/10/22 13:44:09;;;;;;;1.92;1.02;;;;;;;21.18;nan;100526.44;5083890;28;20062;-68
2022/10/22 13:46:41;;;;;;;2.80;0.93;;;;;;;21.16;nan;100525.00;5085794;28;20032;-68
2022/10/22 13:49:11;;;;;;;2.55;0.95;;;;;;;21.03;nan;100525.16;5064449;28;20290;-68
2022/10/22 13:51:37;;;;;;;3.22;1.10;;;;;;;20.88;nan;100520.09;5066469;28;20424;-68
2022/10/22 13:54:09;;;;;;;3.72;0.95;;;;;;;20.72;nan;100516.09;5082720;28;20438;-68
2022/10/22 13:56:34;;;;;;;2.58;0.82;;;;;;;20.60;nan;100518.66;5079902;28;20040;-68